Time;durP1;ratioP1;P1;durP2;ratioP2;P2;SDS_P1;SDS_P2;PMS_P1;PMS_P2;Temp;Humidity;BMP_temperature;BMP_pressure;BME280_temperature;BME280_humidity;BME280_pressure;Samples;Min_cycle;Max_cycle;Signal;HPM_P1;HPM_P2
2023/03/05 00:01:07;;;;;;;6.32;1.27;;;;;;;;;;4980546;28;20094;-77
2023/03/05 00:03:34;;;;;;;5.00;1.15;;;;;;;;;;4980142;28;20479;-77
2023/03/05 00:06:00;;;;;;;10.85;1.67;;;;;;;;;;4979658;28;20034;-77
2023/03/05 00:08:26;;;;;;;9.52;1.35;;;;;;;;;;4981890;28;20034;-77
2023/03/05 00:10:56;;;;;;;8.60;0.80;;;;;;;;;;4976858;28;20033;-77
2023/03/05 00:13:22;;;;;;;8.63;1.10;;;;;;;;;;4979731;28;20370;-77
2023/03/05 00:15:48;;;;;;;6.43;0.98;;;;;;;;;;4973364;28;20035;-78
2023/03/05 00:18:14;;;;;;;3.75;0.80;;;;;;;;;;4981322;28;20047;-77
2023/03/05 00:20:40;;;;;;;7.97;1.10;;;;;;;;;;4964139;28;20498;-76
2023/03/05 00:23:06;;;;;;;5.32;1.08;;;;;;;;;;4980933;28;20030;-77
2023/03/05 00:25:34;;;;;;;7.50;1.08;;;;;;;;;;4965672;28;20164;-76
2023/03/05 00:28:00;;;;;;;11.02;1.20;;;;;;;;;;4980754;28;20035;-77
2023/03/05 00:30:26;;;;;;;7.25;1.30;;;;;;;;;;4987508;28;20093;-76
2023/03/05 00:32:52;;;;;;;10.20;1.17;;;;;;;;;;4987007;28;20047;-77
2023/03/05 00:35:18;;;;;;;7.05;1.40;;;;;;;;;;4982651;28;20042;-77
2023/03/05 00:37:44;;;;;;;12.95;2.70;;;;;;;;;;4987194;28;20471;-76
2023/03/05 00:40:11;;;;;;;4.85;0.75;;;;;;;;;;4985394;28;20042;-76
2023/03/05 00:42:37;;;;;;;9.95;1.00;;;;;;;;;;4989513;28;20088;-77
2023/03/05 00:45:06;;;;;;;7.80;1.15;;;;;;;;;;4983178;28;20075;-77
2023/03/05 00:47:33;;;;;;;12.50;1.40;;;;;;;;;;4986409;28;20125;-76
2023/03/05 00:49:59;;;;;;;7.82;1.00;;;;;;;;;;4984176;28;20030;-76
2023/03/05 00:52:25;;;;;;;4.88;1.52;;;;;;;;;;4984016;28;20050;-77
2023/03/05 00:54:51;;;;;;;5.68;0.80;;;;;;;;;;4984239;28;20117;-76
2023/03/05 00:57:17;;;;;;;5.68;0.75;;;;;;;;;;4983100;28;20046;-77
2023/03/05 00:59:43;;;;;;;8.30;1.00;;;;;;;;;;4989262;28;20117;-77
2023/03/05 01:02:09;;;;;;;13.23;0.93;;;;;;;;;;4980323;28;20035;-78
2023/03/05 01:04:35;;;;;;;4.28;0.70;;;;;;;;;;4970259;28;20035;-78
2023/03/05 01:07:01;;;;;;;6.93;0.70;;;;;;;;;;4980492;28;20124;-78
2023/03/05 01:09:27;;;;;;;3.90;0.70;;;;;;;;;;4982486;28;20027;-78
2023/03/05 01:11:54;;;;;;;6.38;0.77;;;;;;;;;;4984589;28;20113;-77
2023/03/05 01:14:20;;;;;;;7.30;0.90;;;;;;;;;;4982067;28;20567;-77
2023/03/05 01:16:46;;;;;;;5.35;0.75;;;;;;;;;;4981191;28;20035;-77
2023/03/05 01:19:13;;;;;;;6.85;0.82;;;;;;;;;;4985079;28;20537;-78
2023/03/05 01:21:39;;;;;;;5.10;0.50;;;;;;;;;;4981949;28;20062;-77
2023/03/05 01:24:05;;;;;;;3.72;0.40;;;;;;;;;;4985607;28;20090;-77
2023/03/05 01:26:31;;;;;;;12.00;0.80;;;;;;;;;;4982858;28;20039;-76
2023/03/05 01:28:58;;;;;;;4.57;0.85;;;;;;;;;;4985871;28;20050;-77
2023/03/05 01:31:24;;;;;;;4.18;0.80;;;;;;;;;;4979481;28;20443;-76
2023/03/05 01:33:54;;;;;;;3.92;0.90;;;;;;;;;;4971898;28;20034;-76
2023/03/05 01:36:22;;;;;;;7.68;0.80;;;;;;;;;;4986267;28;20131;-76
2023/03/05 01:38:48;;;;;;;6.07;0.70;;;;;;;;;;4982072;28;20034;-76
2023/03/05 01:41:15;;;;;;;5.75;0.82;;;;;;;;;;4983426;28;20059;-76
2023/03/05 01:43:41;;;;;;;5.15;0.90;;;;;;;;;;4983309;28;20031;-76
2023/03/05 01:46:26;;;;;;;10.50;2.10;;;;;;;;;;4966043;28;20053;-77
2023/03/05 01:48:54;;;;;;;5.57;0.80;;;;;;;;;;4978737;28;20042;-76
2023/03/05 01:51:22;;;;;;;7.25;1.02;;;;;;;;;;4980658;28;20046;-76
2023/03/05 01:53:48;;;;;;;6.18;1.05;;;;;;;;;;4965013;28;20081;-76
2023/03/05 01:56:15;;;;;;;10.25;0.95;;;;;;;;;;4981629;28;20097;-76
2023/03/05 01:58:41;;;;;;;12.43;1.05;;;;;;;;;;4981274;28;20475;-76
2023/03/05 02:01:07;;;;;;;10.13;0.90;;;;;;;;;;4978355;28;20030;-77
2023/03/05 02:03:34;;;;;;;10.25;1.85;;;;;;;;;;4985972;28;20077;-77
2023/03/05 02:06:00;;;;;;;9.07;1.73;;;;;;;;;;4965009;28;20487;-77
2023/03/05 02:08:26;;;;;;;11.13;1.55;;;;;;;;;;4965324;28;20475;-78
2023/03/05 02:10:55;;;;;;;7.72;0.90;;;;;;;;;;4982266;28;20117;-77
2023/03/05 02:13:26;;;;;;;6.07;0.60;;;;;;;;;;4981353;28;20038;-77
2023/03/05 02:15:52;;;;;;;8.02;1.52;;;;;;;;;;4973764;28;20027;-76
2023/03/05 02:18:19;;;;;;;8.00;0.80;;;;;;;;;;4964185;28;20027;-77
2023/03/05 02:20:47;;;;;;;6.28;0.80;;;;;;;;;;4985162;28;20491;-76
2023/03/05 02:23:14;;;;;;;6.57;0.90;;;;;;;;;;4984478;28;20065;-77
2023/03/05 02:25:40;;;;;;;4.82;1.10;;;;;;;;;;4962824;28;20046;-76
2023/03/05 02:28:18;;;;;;;7.90;1.90;;;;;;;;;;4979583;28;20376;-77
2023/03/05 02:30:45;;;;;;;6.15;1.17;;;;;;;;;;4980186;28;20065;-75
2023/03/05 02:33:13;;;;;;;6.72;0.95;;;;;;;;;;4975464;28;20045;-77
2023/03/05 02:35:39;;;;;;;7.95;1.10;;;;;;;;;;4962761;28;20431;-74
2023/03/05 02:38:05;;;;;;;5.43;1.02;;;;;;;;;;4984695;28;20431;-77
2023/03/05 02:40:31;;;;;;;6.35;0.90;;;;;;;;;;4979982;28;20368;-77
2023/03/05 02:42:57;;;;;;;6.35;0.98;;;;;;;;;;4979289;28;20045;-77
2023/03/05 02:45:23;;;;;;;4.47;0.85;;;;;;;;;;4980693;28;20101;-77
2023/03/05 02:47:49;;;;;;;6.35;1.48;;;;;;;;;;4979649;28;20054;-77
2023/03/05 02:50:15;;;;;;;2.70;0.52;;;;;;;;;;4981662;28;20258;-77
2023/03/05 02:52:41;;;;;;;1.90;0.65;;;;;;;;;;4977211;28;20057;-77
2023/03/05 02:55:07;;;;;;;7.53;1.00;;;;;;;;;;4963106;28;20185;-77
2023/03/05 02:57:34;;;;;;;4.25;0.70;;;;;;;;;;4977633;28;20034;-77
2023/03/05 03:00:00;;;;;;;5.78;0.80;;;;;;;;;;4975106;28;20050;-78
2023/03/05 03:02:26;;;;;;;6.22;1.00;;;;;;;;;;4983835;28;20379;-78
2023/03/05 03:04:52;;;;;;;9.15;0.95;;;;;;;;;;4980892;28;20030;-78
2023/03/05 03:07:18;;;;;;;5.22;0.80;;;;;;;;;;4980173;28;20038;-78
2023/03/05 03:09:44;;;;;;;3.83;0.75;;;;;;;;;;4980264;28;20034;-78
2023/03/05 03:12:11;;;;;;;5.50;0.70;;;;;;;;;;4979918;28;20034;-78
2023/03/05 03:14:39;;;;;;;10.93;0.93;;;;;;;;;;4977756;28;20027;-78
2023/03/05 03:17:06;;;;;;;4.78;0.57;;;;;;;;;;4980050;28;20026;-78
2023/03/05 03:19:32;;;;;;;5.50;0.90;;;;;;;;;;4981545;28;20026;-77
2023/03/05 03:21:58;;;;;;;3.22;0.80;;;;;;;;;;4985449;28;20038;-77
2023/03/05 03:24:25;;;;;;;5.47;0.60;;;;;;;;;;4985148;28;20014;-77
2023/03/05 03:26:51;;;;;;;7.50;0.82;;;;;;;;;;4980273;28;20035;-77
2023/03/05 03:29:17;;;;;;;2.75;0.50;;;;;;;;;;4980525;28;20031;-77
2023/03/05 03:31:44;;;;;;;3.58;0.52;;;;;;;;;;4985137;28;20041;-76
2023/03/05 03:34:10;;;;;;;2.85;0.65;;;;;;;;;;4977230;28;20038;-77
2023/03/05 03:36:37;;;;;;;5.43;0.77;;;;;;;;;;4981964;28;20042;-77
2023/03/05 03:39:04;;;;;;;1.95;0.68;;;;;;;;;;4977191;28;20065;-77
2023/03/05 03:41:30;;;;;;;2.92;0.50;;;;;;;;;;4981589;28;20057;-77
2023/03/05 03:43:56;;;;;;;6.25;1.02;;;;;;;;;;4976984;28;20081;-77
2023/03/05 03:46:23;;;;;;;9.07;1.02;;;;;;;;;;4980935;28;20042;-77
2023/03/05 03:48:51;;;;;;;3.28;0.65;;;;;;;;;;4981476;28;20038;-77
2023/03/05 03:51:18;;;;;;;4.25;0.68;;;;;;;;;;4980751;28;20206;-77
2023/03/05 03:53:44;;;;;;;8.43;1.02;;;;;;;;;;4980455;28;20529;-77
2023/03/05 03:56:10;;;;;;;4.45;0.63;;;;;;;;;;4976248;28;20030;-77
2023/03/05 03:58:36;;;;;;;8.30;0.85;;;;;;;;;;4982019;28;20478;-76
2023/03/05 04:01:02;;;;;;;4.70;0.50;;;;;;;;;;4969833;28;20051;-75
2023/03/05 04:03:28;;;;;;;7.15;0.63;;;;;;;;;;4979132;28;20042;-75
2023/03/05 04:05:54;;;;;;;5.13;0.77;;;;;;;;;;4978277;28;20038;-75
2023/03/05 04:08:20;;;;;;;5.72;1.17;;;;;;;;;;4977682;28;20090;-76
2023/03/05 04:10:46;;;;;;;4.50;0.75;;;;;;;;;;4977580;28;20499;-76
2023/03/05 04:13:12;;;;;;;2.53;0.70;;;;;;;;;;4978955;28;20113;-76
2023/03/05 04:15:38;;;;;;;6.75;0.93;;;;;;;;;;4979731;28;20030;-76
2023/03/05 04:18:05;;;;;;;2.15;0.73;;;;;;;;;;4975411;28;20042;-76
2023/03/05 04:20:31;;;;;;;2.95;0.60;;;;;;;;;;4975212;28;20093;-75
2023/03/05 04:22:57;;;;;;;4.63;0.90;;;;;;;;;;4981172;28;20033;-75
2023/03/05 04:25:23;;;;;;;4.07;0.52;;;;;;;;;;4976679;28;20035;-75
2023/03/05 04:27:49;;;;;;;11.73;1.38;;;;;;;;;;4981470;28;20027;-75
2023/03/05 04:30:15;;;;;;;8.95;0.82;;;;;;;;;;4978878;28;20023;-76
2023/03/05 04:32:41;;;;;;;8.35;0.95;;;;;;;;;;4974319;28;20038;-75
2023/03/05 04:35:07;;;;;;;6.10;1.88;;;;;;;;;;4981043;28;20037;-75
2023/03/05 04:37:34;;;;;;;8.13;0.95;;;;;;;;;;4961650;28;20090;-75
2023/03/05 04:40:00;;;;;;;6.18;0.50;;;;;;;;;;4980088;28;20498;-75
2023/03/05 04:42:26;;;;;;;7.22;0.85;;;;;;;;;;4979040;28;20400;-75
2023/03/05 04:44:52;;;;;;;5.13;0.63;;;;;;;;;;4961343;28;20053;-75
2023/03/05 04:47:18;;;;;;;6.75;1.08;;;;;;;;;;4975271;28;20431;-76
2023/03/05 04:49:45;;;;;;;3.35;0.90;;;;;;;;;;4979435;28;20156;-75
2023/03/05 04:52:13;;;;;;;3.15;0.70;;;;;;;;;;4978551;28;20447;-76
2023/03/05 04:54:39;;;;;;;6.43;1.25;;;;;;;;;;4980703;28;20026;-76
2023/03/05 04:57:05;;;;;;;2.38;0.68;;;;;;;;;;4983913;28;20035;-76
2023/03/05 04:59:31;;;;;;;7.90;0.90;;;;;;;;;;4981164;28;20037;-75
2023/03/05 05:01:57;;;;;;;8.02;1.05;;;;;;;;;;4981903;28;20033;-76
2023/03/05 05:04:23;;;;;;;9.82;0.98;;;;;;;;;;4979642;28;20093;-76
2023/03/05 05:06:50;;;;;;;4.70;0.88;;;;;;;;;;4979728;28;20038;-78
2023/03/05 05:09:16;;;;;;;4.68;1.00;;;;;;;;;;4981439;28;20042;-75
2023/03/05 05:11:42;;;;;;;8.23;1.25;;;;;;;;;;4978538;28;20046;-75
2023/03/05 05:14:08;;;;;;;15.18;6.18;;;;;;;;;;4981074;28;20038;-76
2023/03/05 05:16:34;;;;;;;6.25;1.00;;;;;;;;;;4983460;28;20050;-75
2023/03/05 05:19:00;;;;;;;3.08;0.95;;;;;;;;;;4984030;28;20044;-75
2023/03/05 05:21:26;;;;;;;7.68;1.85;;;;;;;;;;4985155;28;20122;-76
2023/03/05 05:23:52;;;;;;;5.07;1.00;;;;;;;;;;4980028;28;20034;-75
2023/03/05 05:26:18;;;;;;;7.72;1.20;;;;;;;;;;4963668;28;20042;-75
2023/03/05 05:28:44;;;;;;;4.68;0.80;;;;;;;;;;4978769;28;20042;-77
2023/03/05 05:31:11;;;;;;;10.73;0.80;;;;;;;;;;4968022;28;20048;-76
2023/03/05 05:33:37;;;;;;;6.20;1.52;;;;;;;;;;4988063;28;20033;-74
2023/03/05 05:36:04;;;;;;;5.18;0.75;;;;;;;;;;4984802;28;20101;-75
2023/03/05 05:38:30;;;;;;;3.95;0.60;;;;;;;;;;4984080;28;20034;-75
2023/03/05 05:41:01;;;;;;;9.70;2.13;;;;;;;;;;4983716;28;20045;-74
2023/03/05 05:43:27;;;;;;;9.02;2.10;;;;;;;;;;4981072;28;20110;-76
2023/03/05 05:45:53;;;;;;;7.28;3.05;;;;;;;;;;4984027;28;20038;-76
2023/03/05 05:48:20;;;;;;;25.27;10.05;;;;;;;;;;4983981;28;20043;-73
2023/03/05 05:50:46;;;;;;;8.07;2.25;;;;;;;;;;4984258;28;20034;-77
2023/03/05 05:53:12;;;;;;;2.00;0.85;;;;;;;;;;4963027;28;20057;-77
2023/03/05 05:55:40;;;;;;;4.93;0.88;;;;;;;;;;4982681;28;20053;-77
2023/03/05 05:58:06;;;;;;;6.75;0.93;;;;;;;;;;4985559;28;20104;-77
2023/03/05 06:00:32;;;;;;;7.88;0.90;;;;;;;;;;4982085;28;20062;-76
2023/03/05 06:02:58;;;;;;;6.72;1.40;;;;;;;;;;4979785;28;21692;-76
2023/03/05 06:05:24;;;;;;;8.52;1.10;;;;;;;;;;4981992;28;20030;-77
2023/03/05 06:07:50;;;;;;;8.23;2.83;;;;;;;;;;4985850;28;20089;-77
2023/03/05 06:10:16;;;;;;;3.92;0.80;;;;;;;;;;4971169;28;20042;-77
2023/03/05 06:12:42;;;;;;;6.10;1.10;;;;;;;;;;4987656;28;20034;-77
2023/03/05 06:15:08;;;;;;;5.50;0.85;;;;;;;;;;4980115;28;20046;-76
2023/03/05 06:17:35;;;;;;;6.75;1.10;;;;;;;;;;4967148;28;20026;-75
2023/03/05 06:20:01;;;;;;;5.38;0.63;;;;;;;;;;4984767;28;20483;-74
2023/03/05 06:22:27;;;;;;;6.90;0.98;;;;;;;;;;4980162;28;20034;-75
2023/03/05 06:24:53;;;;;;;2.97;0.82;;;;;;;;;;4994476;28;20491;-76
2023/03/05 06:27:19;;;;;;;6.57;0.88;;;;;;;;;;4993135;28;20380;-76
2023/03/05 06:29:45;;;;;;;6.03;0.93;;;;;;;;;;4993519;28;20022;-76
2023/03/05 06:32:11;;;;;;;5.43;0.70;;;;;;;;;;4983377;28;20033;-76
2023/03/05 06:34:37;;;;;;;5.63;1.13;;;;;;;;;;4993187;28;20030;-76
2023/03/05 06:37:03;;;;;;;11.73;1.88;;;;;;;;;;4996551;28;20196;-75
2023/03/05 06:39:30;;;;;;;8.70;0.90;;;;;;;;;;4984286;28;20045;-77
2023/03/05 06:41:56;;;;;;;6.07;1.35;;;;;;;;;;4983456;28;20070;-76
2023/03/05 06:44:22;;;;;;;9.02;0.80;;;;;;;;;;4979036;28;20368;-76
2023/03/05 06:46:48;;;;;;;5.55;0.82;;;;;;;;;;4981689;28;20511;-76
2023/03/05 06:49:14;;;;;;;5.35;1.60;;;;;;;;;;4985279;28;20530;-77
2023/03/05 06:51:41;;;;;;;4.57;0.70;;;;;;;;;;4983062;28;20117;-76
2023/03/05 06:54:14;;;;;;;4.38;0.65;;;;;;;;;;4965937;28;20038;-78
2023/03/05 06:56:42;;;;;;;3.10;0.73;;;;;;;;;;4981387;28;20338;-77
2023/03/05 06:59:08;;;;;;;4.53;0.65;;;;;;;;;;4980955;28;20034;-77
2023/03/05 07:01:34;;;;;;;7.10;0.77;;;;;;;;;;4977611;28;20509;-77
2023/03/05 07:04:01;;;;;;;12.77;1.08;;;;;;;;;;4979350;28;20026;-77
2023/03/05 07:06:28;;;;;;;7.32;1.38;;;;;;;;;;4978412;28;20031;-78
2023/03/05 07:08:55;;;;;;;3.83;0.70;;;;;;;;;;4977889;28;20113;-78
2023/03/05 07:11:23;;;;;;;6.15;0.85;;;;;;;;;;4981344;28;20755;-77
2023/03/05 07:13:50;;;;;;;7.13;1.52;;;;;;;;;;4975406;28;20045;-77
2023/03/05 07:16:17;;;;;;;4.10;1.80;;;;;;;;;;4981208;28;20037;-77
2023/03/05 07:18:46;;;;;;;7.32;2.33;;;;;;;;;;4982587;28;20436;-77
2023/03/05 07:21:18;;;;;;;6.53;1.80;;;;;;;;;;4981871;28;20010;-77
2023/03/05 07:23:44;;;;;;;26.65;1.70;;;;;;;;;;4982249;28;20053;-75
2023/03/05 07:26:11;;;;;;;3.78;1.25;;;;;;;;;;4980403;28;20114;-76
2023/03/05 07:28:37;;;;;;;8.50;2.22;;;;;;;;;;4965729;28;20050;-75
2023/03/05 07:31:04;;;;;;;10.50;3.70;;;;;;;;;;4962843;28;20054;-75
2023/03/05 07:33:31;;;;;;;7.40;2.95;;;;;;;;;;4974673;28;20046;-75
2023/03/05 07:35:57;;;;;;;14.00;4.05;;;;;;;;;;4986001;28;20030;-75
2023/03/05 07:38:23;;;;;;;15.10;4.30;;;;;;;;;;4981689;28;20105;-76
2023/03/05 07:40:49;;;;;;;9.05;4.07;;;;;;;;;;4978036;28;20049;-76
2023/03/05 07:43:15;;;;;;;7.63;3.28;;;;;;;;;;4979462;28;20063;-76
2023/03/05 07:45:42;;;;;;;10.07;2.30;;;;;;;;;;4980613;28;20395;-76
2023/03/05 07:48:12;;;;;;;6.97;3.03;;;;;;;;;;4981839;28;20378;-76
2023/03/05 07:50:38;;;;;;;8.75;1.27;;;;;;;;;;4974772;28;20019;-76
2023/03/05 07:53:04;;;;;;;4.30;0.90;;;;;;;;;;4953287;28;20059;-76
2023/03/05 07:55:30;;;;;;;6.82;0.98;;;;;;;;;;4945011;28;20039;-75
2023/03/05 07:57:56;;;;;;;6.82;1.23;;;;;;;;;;4943261;28;20043;-75
2023/03/05 08:00:22;;;;;;;4.53;0.82;;;;;;;;;;4939317;28;20035;-75
2023/03/05 08:02:49;;;;;;;5.70;1.17;;;;;;;;;;4941697;28;20035;-76
2023/03/05 08:05:15;;;;;;;6.75;1.48;;;;;;;;;;4944497;28;20031;-76
2023/03/05 08:07:41;;;;;;;4.65;0.85;;;;;;;;;;4961663;28;20118;-76
2023/03/05 08:10:08;;;;;;;5.75;0.68;;;;;;;;;;4939594;28;20027;-79
2023/03/05 08:12:34;;;;;;;6.72;1.23;;;;;;;;;;4945049;28;20373;-78
2023/03/05 08:15:00;;;;;;;6.90;1.05;;;;;;;;;;4941273;28;20024;-78
2023/03/05 08:17:27;;;;;;;11.13;2.13;;;;;;;;;;4947628;28;20075;-75
2023/03/05 08:19:56;;;;;;;5.05;1.38;;;;;;;;;;4944871;28;20494;-77
2023/03/05 08:22:22;;;;;;;6.50;1.05;;;;;;;;;;4944108;28;20027;-76
2023/03/05 08:24:49;;;;;;;8.35;1.50;;;;;;;;;;4945443;28;20039;-77
2023/03/05 08:27:15;;;;;;;8.60;1.58;;;;;;;;;;4957730;28;20127;-76
2023/03/05 08:29:41;;;;;;;12.13;1.20;;;;;;;;;;4941865;28;20043;-77
2023/03/05 08:32:08;;;;;;;5.43;0.68;;;;;;;;;;4944595;28;20349;-76
2023/03/05 08:34:35;;;;;;;8.90;1.40;;;;;;;;;;4944034;28;20032;-77
2023/03/05 08:37:01;;;;;;;6.22;0.98;;;;;;;;;;4945238;28;20031;-77
2023/03/05 08:39:29;;;;;;;9.18;1.55;;;;;;;;;;4937840;28;20047;-77
2023/03/05 08:41:55;;;;;;;11.93;1.17;;;;;;;;;;4943284;28;20027;-77
2023/03/05 08:44:21;;;;;;;6.20;0.93;;;;;;;;;;4941033;28;20094;-77
2023/03/05 08:46:47;;;;;;;6.68;0.93;;;;;;;;;;4940252;28;20023;-77
2023/03/05 08:49:13;;;;;;;6.85;0.70;;;;;;;;;;4940061;28;20100;-77
2023/03/05 08:51:39;;;;;;;10.63;0.90;;;;;;;;;;4952082;28;20051;-77
2023/03/05 08:54:06;;;;;;;6.82;1.95;;;;;;;;;;4982237;28;20518;-77
2023/03/05 08:56:33;;;;;;;5.63;1.00;;;;;;;;;;4983965;28;20513;-78
2023/03/05 08:58:59;;;;;;;11.07;1.77;;;;;;;;;;4983843;28;20034;-78
2023/03/05 09:01:26;;;;;;;8.38;1.10;;;;;;;;;;4982678;28;20030;-78
2023/03/05 09:03:53;;;;;;;11.73;0.90;;;;;;;;;;4981683;28;20045;-78
2023/03/05 09:06:19;;;;;;;10.55;1.02;;;;;;;;;;4980527;28;20125;-78
2023/03/05 09:08:45;;;;;;;9.18;1.08;;;;;;;;;;4981609;28;20097;-79
2023/03/05 09:11:13;;;;;;;7.50;1.63;;;;;;;;;;4983807;28;20043;-79
2023/03/05 09:13:39;;;;;;;5.00;0.95;;;;;;;;;;4969542;28;20024;-78
2023/03/05 09:16:07;;;;;;;5.25;0.85;;;;;;;;;;4961644;28;20038;-78
2023/03/05 09:18:35;;;;;;;10.80;1.50;;;;;;;;;;4981085;28;20467;-78
2023/03/05 09:21:05;;;;;;;5.68;1.13;;;;;;;;;;4982032;28;20041;-79
2023/03/05 09:23:31;;;;;;;9.52;1.25;;;;;;;;;;4962261;28;20113;-78
2023/03/05 09:25:57;;;;;;;13.55;1.33;;;;;;;;;;4964671;28;20046;-79
2023/03/05 09:28:23;;;;;;;5.95;1.10;;;;;;;;;;4980793;28;20058;-76
2023/03/05 09:30:49;;;;;;;7.68;1.08;;;;;;;;;;4977622;28;20031;-76
2023/03/05 09:33:15;;;;;;;8.35;1.40;;;;;;;;;;4985010;28;20026;-76
2023/03/05 09:35:41;;;;;;;4.63;1.20;;;;;;;;;;4983741;28;20058;-76
2023/03/05 09:38:07;;;;;;;8.27;1.10;;;;;;;;;;4981998;28;20324;-79
2023/03/05 09:40:53;;;;;;;10.80;2.17;;;;;;;;;;4989280;28;20359;-77
2023/03/05 09:43:22;;;;;;;7.90;1.27;;;;;;;;;;4976604;28;20097;-77
2023/03/05 09:46:02;;;;;;;9.07;1.10;;;;;;;;;;4988503;28;20030;-77
2023/03/05 09:48:48;;;;;;;8.55;1.45;;;;;;;;;;4971861;28;20400;-76
2023/03/05 09:51:25;;;;;;;10.18;1.00;;;;;;;;;;4981457;28;20029;-77
2023/03/05 09:53:54;;;;;;;9.63;1.42;;;;;;;;;;4986693;28;20184;-77
2023/03/05 09:56:25;;;;;;;4.75;0.95;;;;;;;;;;4981572;28;20034;-76
2023/03/05 09:58:53;;;;;;;12.00;5.60;;;;;;;;;;4985264;28;20463;-77
2023/03/05 10:01:21;;;;;;;6.55;2.00;;;;;;;;;;4985331;28;20018;-79
2023/03/05 10:03:56;;;;;;;5.07;1.45;;;;;;;;;;4969184;28;20061;-79
2023/03/05 10:06:29;;;;;;;9.00;0.90;;;;;;;;;;4983069;28;20467;-78
2023/03/05 10:09:10;;;;;;;7.25;1.23;;;;;;;;;;4983847;28;20030;-78
2023/03/05 10:11:40;;;;;;;10.50;1.00;;;;;;;;;;4967860;28;20022;-77
2023/03/05 10:14:06;;;;;;;6.25;1.35;;;;;;;;;;4983830;28;20077;-79
2023/03/05 10:16:41;;;;;;;10.80;1.38;;;;;;;;;;4965978;28;20051;-76
2023/03/05 10:19:13;;;;;;;6.53;0.77;;;;;;;;;;4983918;28;20148;-78
2023/03/05 10:21:42;;;;;;;7.18;0.82;;;;;;;;;;4981754;28;20030;-76
2023/03/05 10:24:25;;;;;;;6.00;1.30;;;;;;;;;;4966898;28;20081;-78
2023/03/05 10:26:53;;;;;;;3.95;0.88;;;;;;;;;;4980941;28;20042;-76
2023/03/05 10:29:39;;;;;;;8.98;1.25;;;;;;;;;;4982309;28;20140;-76
2023/03/05 10:32:05;;;;;;;4.53;0.70;;;;;;;;;;4981983;28;20057;-76
2023/03/05 10:34:50;;;;;;;4.20;0.80;;;;;;;;;;4984430;28;21549;-75
2023/03/05 10:37:34;;;;;;;4.40;0.70;;;;;;;;;;4981095;28;20042;-76
2023/03/05 10:40:08;;;;;;;7.18;1.05;;;;;;;;;;4982873;28;20033;-77
2023/03/05 10:42:43;;;;;;;7.75;1.35;;;;;;;;;;4982187;28;20030;-78
2023/03/05 10:45:16;;;;;;;4.30;0.90;;;;;;;;;;4982259;28;20033;-77
2023/03/05 10:47:41;;;;;;;;;;;;;;;;;;4966934;28;20490;-76
2023/03/05 10:50:16;;;;;;;1.42;0.43;;;;;;;;;;4968438;28;19905;-77
2023/03/05 10:52:45;;;;;;;7.65;0.93;;;;;;;;;;4982277;28;20092;-77
2023/03/05 10:55:16;;;;;;;4.40;0.90;;;;;;;;;;4979646;28;20592;-76
2023/03/05 10:57:42;;;;;;;6.75;0.82;;;;;;;;;;4984684;28;20030;-76
2023/03/05 11:00:16;;;;;;;3.92;0.52;;;;;;;;;;4967381;28;20126;-77
2023/03/05 11:02:53;;;;;;;7.07;0.70;;;;;;;;;;4967799;28;20114;-77
2023/03/05 11:05:38;;;;;;;2.60;0.45;;;;;;;;;;4979844;28;20176;-76
2023/03/05 11:08:33;;;;;;;10.18;1.25;;;;;;;;;;4965431;28;20047;-77
2023/03/05 11:11:05;;;;;;;6.95;0.80;;;;;;;;;;4952639;28;20459;-79
2023/03/05 11:13:32;;;;;;;3.65;0.57;;;;;;;;;;4983082;28;20018;-76
2023/03/05 11:16:03;;;;;;;6.25;0.90;;;;;;;;;;4980515;28;20018;-75
2023/03/05 11:18:36;;;;;;;4.75;0.95;;;;;;;;;;4982975;28;20049;-76
2023/03/05 11:21:10;;;;;;;6.88;0.70;;;;;;;;;;4978700;28;20543;-78
2023/03/05 11:23:36;;;;;;;4.53;1.10;;;;;;;;;;4982074;28;20072;-77
2023/03/05 11:26:18;;;;;;;6.65;1.23;;;;;;;;;;4978538;28;20141;-77
2023/03/05 11:28:53;;;;;;;10.50;3.63;;;;;;;;;;4985070;28;20058;-78
2023/03/05 11:31:19;;;;;;;7.95;1.15;;;;;;;;;;4978666;28;20026;-79
2023/03/05 11:33:55;;;;;;;3.88;1.00;;;;;;;;;;4986512;28;20057;-77
2023/03/05 11:36:23;;;;;;;2.83;0.47;;;;;;;;;;4980592;28;20057;-77
2023/03/05 11:38:53;;;;;;;6.45;0.80;;;;;;;;;;4979769;28;20026;-76
2023/03/05 11:41:25;;;;;;;10.23;2.45;;;;;;;;;;4982178;28;20057;-75
2023/03/05 11:43:53;;;;;;;4.53;0.73;;;;;;;;;;4982550;28;20026;-76
2023/03/05 11:46:20;;;;;;;3.88;0.88;;;;;;;;;;4982086;28;20089;-77
2023/03/05 11:48:47;;;;;;;3.55;0.73;;;;;;;;;;4982574;28;20483;-76
2023/03/05 11:51:17;;;;;;;4.18;0.85;;;;;;;;;;4982904;28;20034;-76
2023/03/05 11:53:45;;;;;;;8.07;1.13;;;;;;;;;;4961353;28;20055;-76
2023/03/05 11:56:20;;;;;;;4.53;1.48;;;;;;;;;;4964079;28;20041;-79
2023/03/05 11:58:49;;;;;;;4.05;0.90;;;;;;;;;;4981521;28;20037;-78
2023/03/05 12:01:17;;;;;;;4.07;0.50;;;;;;;;;;4982718;28;20140;-78
2023/03/05 12:03:43;;;;;;;2.53;0.55;;;;;;;;;;4979895;28;20550;-78
2023/03/05 12:06:17;;;;;;;4.95;0.93;;;;;;;;;;4965169;28;20419;-79
2023/03/05 12:08:45;;;;;;;3.03;0.63;;;;;;;;;;4982966;28;20589;-76
2023/03/05 12:11:25;;;;;;;3.28;0.98;;;;;;;;;;4981641;28;20124;-78
2023/03/05 12:14:03;;;;;;;7.53;1.60;;;;;;;;;;4967130;28;20441;-78
2023/03/05 12:16:38;;;;;;;5.90;1.00;;;;;;;;;;4983983;28;20454;-77
2023/03/05 12:19:10;;;;;;;3.88;0.80;;;;;;;;;;4979121;28;20038;-79
2023/03/05 12:21:37;;;;;;;;;;;;;;;;;;4981603;28;20038;-77
2023/03/05 12:24:23;;;;;;;5.53;1.23;;;;;;;;;;4985274;28;19991;-80
2023/03/05 12:27:01;;;;;;;6.88;1.45;;;;;;;;;;4979577;28;20129;-80
2023/03/05 12:29:27;;;;;;;5.97;0.98;;;;;;;;;;4982290;28;20443;-80
2023/03/05 12:31:53;;;;;;;9.15;1.10;;;;;;;;;;4983130;28;20026;-79
2023/03/05 12:34:38;;;;;;;3.88;1.23;;;;;;;;;;4973470;28;20030;-77
2023/03/05 12:37:05;;;;;;;2.47;0.75;;;;;;;;;;4979373;28;20395;-76
2023/03/05 12:39:54;;;;;;;6.82;0.90;;;;;;;;;;4983567;28;20491;-76
2023/03/05 12:42:29;;;;;;;6.18;1.58;;;;;;;;;;4955849;28;20046;-78
2023/03/05 12:45:10;;;;;;;8.57;1.10;;;;;;;;;;4969901;28;20026;-77
2023/03/05 12:47:36;;;;;;;5.13;0.73;;;;;;;;;;4965329;28;20046;-78
2023/03/05 12:50:03;;;;;;;2.30;0.70;;;;;;;;;;4985211;28;20034;-81
2023/03/05 12:52:31;;;;;;;6.65;1.15;;;;;;;;;;4962485;28;20062;-77
2023/03/05 12:55:02;;;;;;;4.00;0.88;;;;;;;;;;4959923;28;20078;-79
2023/03/05 12:57:30;;;;;;;4.90;1.20;;;;;;;;;;4961828;28;20117;-81
2023/03/05 12:59:56;;;;;;;10.20;1.77;;;;;;;;;;4955945;28;20510;-79
2023/03/05 13:02:31;;;;;;;5.68;1.45;;;;;;;;;;4957212;28;20062;-78
2023/03/05 13:05:03;;;;;;;12.07;1.25;;;;;;;;;;4965043;28;20237;-80
2023/03/05 13:07:29;;;;;;;3.88;0.80;;;;;;;;;;4964677;28;20058;-75
2023/03/05 13:09:56;;;;;;;4.53;0.90;;;;;;;;;;4962708;28;20038;-77
2023/03/05 13:12:23;;;;;;;9.27;1.08;;;;;;;;;;4960780;28;20092;-76
2023/03/05 13:14:57;;;;;;;7.13;0.90;;;;;;;;;;4960867;28;20042;-76
2023/03/05 13:17:43;;;;;;;6.95;0.90;;;;;;;;;;4961683;28;20372;-76
2023/03/05 13:20:22;;;;;;;5.38;1.02;;;;;;;;;;4954223;28;20441;-77
2023/03/05 13:22:48;;;;;;;8.55;1.48;;;;;;;;;;4963150;28;20458;-77
2023/03/05 13:25:15;;;;;;;3.17;0.73;;;;;;;;;;4962447;28;20371;-76
2023/03/05 13:27:42;;;;;;;6.68;1.13;;;;;;;;;;4961312;28;20122;-76
2023/03/05 13:30:21;;;;;;;6.10;0.73;;;;;;;;;;4961377;28;20058;-78
2023/03/05 13:32:49;;;;;;;3.67;0.70;;;;;;;;;;4963473;28;20040;-77
2023/03/05 13:35:15;;;;;;;3.97;1.08;;;;;;;;;;4960718;28;20035;-78
2023/03/05 13:37:43;;;;;;;6.43;0.70;;;;;;;;;;4970598;28;20046;-78
2023/03/05 13:40:25;;;;;;;3.15;0.63;;;;;;;;;;4962176;28;20031;-78
2023/03/05 13:42:52;;;;;;;3.90;0.90;;;;;;;;;;4967587;28;20068;-78
2023/03/05 13:45:24;;;;;;;4.70;1.15;;;;;;;;;;4964813;28;20026;-78
2023/03/05 13:47:54;;;;;;;4.40;0.68;;;;;;;;;;4968971;28;20145;-80
2023/03/05 13:50:25;;;;;;;5.07;0.90;;;;;;;;;;4955862;28;20093;-78
2023/03/05 13:52:51;;;;;;;3.75;0.95;;;;;;;;;;4951637;28;20503;-77
2023/03/05 13:55:17;;;;;;;1.50;0.60;;;;;;;;;;4965999;28;20625;-78
2023/03/05 13:57:45;;;;;;;6.53;0.93;;;;;;;;;;4967316;28;20117;-78
2023/03/05 14:00:26;;;;;;;6.75;0.98;;;;;;;;;;4965299;28;20031;-79
2023/03/05 14:02:53;;;;;;;8.43;1.20;;;;;;;;;;4965372;28;20097;-79
2023/03/05 14:05:19;;;;;;;9.98;0.77;;;;;;;;;;4951360;28;20046;-77
2023/03/05 14:07:47;;;;;;;12.25;1.90;;;;;;;;;;4960056;28;20053;-77
2023/03/05 14:10:29;;;;;;;6.40;1.02;;;;;;;;;;4963704;28;20054;-77
2023/03/05 14:12:55;;;;;;;5.85;1.33;;;;;;;;;;4966377;28;20081;-78
2023/03/05 14:15:22;;;;;;;7.93;1.13;;;;;;;;;;4964688;28;20039;-78
2023/03/05 14:17:50;;;;;;;3.30;0.60;;;;;;;;;;4962159;28;20166;-78
2023/03/05 14:20:24;;;;;;;4.30;0.90;;;;;;;;;;4964734;28;20582;-77
2023/03/05 14:22:53;;;;;;;8.55;1.98;;;;;;;;;;4961768;28;20035;-78
2023/03/05 14:25:25;;;;;;;4.10;0.70;;;;;;;;;;4967350;28;20488;-77
2023/03/05 14:27:51;;;;;;;2.30;0.60;;;;;;;;;;4965621;28;20039;-78
2023/03/05 14:30:19;;;;;;;4.72;0.70;;;;;;;;;;4963790;28;20369;-78
2023/03/05 14:32:45;;;;;;;2.60;0.63;;;;;;;;;;4964532;28;20042;-80
2023/03/05 14:35:18;;;;;;;1.75;0.60;;;;;;;;;;4962632;28;20309;-78
2023/03/05 14:37:47;;;;;;;6.72;1.10;;;;;;;;;;4965010;28;20034;-80
2023/03/05 14:40:13;;;;;;;29.15;14.82;;;;;;;;;;4963897;28;20062;-77
2023/03/05 14:42:56;;;;;;;9.63;2.85;;;;;;;;;;4960975;28;20037;-79
2023/03/05 14:45:22;;;;;;;5.38;0.73;;;;;;;;;;4964212;28;20045;-78
2023/03/05 14:47:53;;;;;;;7.30;0.90;;;;;;;;;;4965141;28;20034;-77